Sentier — NP166Q — position and weather

sailwx.info

Track history (hours):
 
Tides and Currents Weather Stations Pressure Air Temp Water Temp Dewpoint Dewpoint Depression Visibility Wind Speed Wind Dir Waves Ship Positions

Sentier

Last reported at 2018-May-25 08:17 UTC. Time now 2018-May-25 18:50 UTC.
Position S 27°12' E 153°07'.

Length 11 m.

Type: Sailing vessel. MMSI: 503025130.

Date/timePositionNaut miles runAvg speedWind from/ knotsBaromVisibWave heightAir tempDewpointWater temp
2018-May-25 08:17S 27°12' E 153°07'0 0.0
2018-May-25 07:59S 27°12' E 153°07'0 0.0
2018-May-25 07:29S 27°12' E 153°07'0 0.0
2018-May-25 06:59S 27°12' E 153°07'0 0.0
2018-May-25 06:29S 27°12' E 153°07'0 0.0
2018-May-25 05:59S 27°12' E 153°07'0 0.0
2018-May-25 05:28S 27°12' E 153°07'0 0.0
2018-May-25 04:58S 27°12' E 153°07'0 0.0
2018-May-25 04:28S 27°12' E 153°07'0 0.0
2018-May-23 05:42S 27°12' E 153°07'0 0.8
2018-May-23 05:30S 27°12' E 153°06'2 4.4
2018-May-23 05:00S 27°11' E 153°04'4 7.1
2018-May-23 04:30S 27°08' E 153°06'3 5.0
2018-May-23 04:00S 27°11' E 153°06'1 1.3
2018-May-23 03:30S 27°11' E 153°06'0 0.8
2018-May-23 02:58S 27°12' E 153°07'0 0.0
2018-May-23 02:28S 27°12' E 153°07'0 0.0
2018-May-23 01:58S 27°12' E 153°07'0 0.0
2018-May-23 01:28S 27°12' E 153°07'0 0.0
2018-May-23 00:58S 27°12' E 153°07'  
2018-May-19 10:31S 27°12' E 153°07'0 0.0
2018-May-19 10:25S 27°12' E 153°07'1 1.7
2018-May-19 10:00S 27°11' E 153°06'1 1.6
2018-May-19 09:30S 27°11' E 153°07'1 2.2
2018-May-19 09:00S 27°11' E 153°08'2 3.4
2018-May-19 08:30S 27°11' E 153°10'4 1.3
2018-May-19 05:39S 27°12' E 153°14'0 2.6
2018-May-19 05:29S 27°13' E 153°14'1 1.7
2018-May-19 04:51S 27°13' E 153°13'1 2.5
2018-May-19 04:30S 27°13' E 153°12'1 2.1
2018-May-19 03:59S 27°13' E 153°10'1 1.4
2018-May-19 03:29S 27°13' E 153°10'1 2.3
2018-May-19 02:59S 27°14' E 153°09'2 3.3
2018-May-19 02:23S 27°15' E 153°07'1 3.5
2018-May-19 02:00S 27°14' E 153°07'2 4.0
2018-May-19 01:30S 27°12' E 153°08'1 2.8
2018-May-19 01:00S 27°11' E 153°07'1 1.7
2018-May-19 00:29S 27°11' E 153°06'0 0.8
2018-May-19 00:00S 27°11' E 153°06'1 1.0
2018-May-18 23:30S 27°11' E 153°06'1 0.0
2018-May-18 05:54S 27°12' E 153°07'1 1.9
2018-May-18 05:29S 27°11' E 153°06'2 2.7
2018-May-18 04:55S 27°09' E 153°06'3 1.4
2018-May-18 02:41S 27°06' E 153°06'1 3.9
2018-May-18 02:30S 27°07' E 153°06'3 5.4
2018-May-18 01:58S 27°10' E 153°06'2 0.0
2018-May-16 05:49S 27°12' E 153°07'1 1.8
2018-May-16 05:30S 27°11' E 153°07'2 4.7
2018-May-16 05:00S 27°10' E 153°04'4 7.8
2018-May-16 04:27S 27°07' E 153°07'4 8.5
2018-May-16 04:00S 27°11' E 153°06'0 0.8
2018-May-16 03:30S 27°11' E 153°06'1 1.0
2018-May-16 03:00S 27°12' E 153°07'0 0.0
2018-May-16 02:30S 27°12' E 153°07'0 0.0
2018-May-16 02:00S 27°12' E 153°07'0 0.0
2018-May-16 01:30S 27°12' E 153°07'  
Track history (hours):
 
Tides and Currents Weather Stations Pressure Air Temp Water Temp Dewpoint Dewpoint Depression Visibility Wind Speed Wind Dir Waves Ship Positions

Sentier

Last reported at 2018-May-25 08:17 UTC. Time now 2018-May-25 18:50 UTC.
Position S 27°12' E 153°07'.

Length 11 m.

Type: Sailing vessel. MMSI: 503025130.

Date/timePositionNaut miles runAvg speedWind from/ knotsBaromVisibWave heightAir tempDewpointWater temp
2018-May-25 08:17S 27°12' E 153°07'0 0.0
2018-May-25 07:59S 27°12' E 153°07'0 0.0
2018-May-25 07:29S 27°12' E 153°07'0 0.0
2018-May-25 06:59S 27°12' E 153°07'0 0.0
2018-May-25 06:29S 27°12' E 153°07'0 0.0
2018-May-25 05:59S 27°12' E 153°07'0 0.0
2018-May-25 05:28S 27°12' E 153°07'0 0.0
2018-May-25 04:58S 27°12' E 153°07'0 0.0
2018-May-25 04:28S 27°12' E 153°07'0 0.0
2018-May-23 05:42S 27°12' E 153°07'0 0.8
2018-May-23 05:30S 27°12' E 153°06'2 4.4
2018-May-23 05:00S 27°11' E 153°04'4 7.1
2018-May-23 04:30S 27°08' E 153°06'3 5.0
2018-May-23 04:00S 27°11' E 153°06'1 1.3
2018-May-23 03:30S 27°11' E 153°06'0 0.8
2018-May-23 02:58S 27°12' E 153°07'0 0.0
2018-May-23 02:28S 27°12' E 153°07'0 0.0
2018-May-23 01:58S 27°12' E 153°07'0 0.0
2018-May-23 01:28S 27°12' E 153°07'0 0.0
2018-May-23 00:58S 27°12' E 153°07'  
2018-May-19 10:31S 27°12' E 153°07'0 0.0
2018-May-19 10:25S 27°12' E 153°07'1 1.7
2018-May-19 10:00S 27°11' E 153°06'1 1.6
2018-May-19 09:30S 27°11' E 153°07'1 2.2
2018-May-19 09:00S 27°11' E 153°08'2 3.4
2018-May-19 08:30S 27°11' E 153°10'4 1.3
2018-May-19 05:39S 27°12' E 153°14'0 2.6
2018-May-19 05:29S 27°13' E 153°14'1 1.7
2018-May-19 04:51S 27°13' E 153°13'1 2.5
2018-May-19 04:30S 27°13' E 153°12'1 2.1
2018-May-19 03:59S 27°13' E 153°10'1 1.4
2018-May-19 03:29S 27°13' E 153°10'1 2.3
2018-May-19 02:59S 27°14' E 153°09'2 3.3
2018-May-19 02:23S 27°15' E 153°07'1 3.5
2018-May-19 02:00S 27°14' E 153°07'2 4.0
2018-May-19 01:30S 27°12' E 153°08'1 2.8
2018-May-19 01:00S 27°11' E 153°07'1 1.7
2018-May-19 00:29S 27°11' E 153°06'0 0.8
2018-May-19 00:00S 27°11' E 153°06'1 1.0
2018-May-18 23:30S 27°11' E 153°06'1 0.0
2018-May-18 05:54S 27°12' E 153°07'1 1.9
2018-May-18 05:29S 27°11' E 153°06'2 2.7
2018-May-18 04:55S 27°09' E 153°06'3 1.4
2018-May-18 02:41S 27°06' E 153°06'1 3.9
2018-May-18 02:30S 27°07' E 153°06'3 5.4
2018-May-18 01:58S 27°10' E 153°06'2 0.0
2018-May-16 05:49S 27°12' E 153°07'1 1.8
2018-May-16 05:30S 27°11' E 153°07'2 4.7
2018-May-16 05:00S 27°10' E 153°04'4 7.8
2018-May-16 04:27S 27°07' E 153°07'4 8.5
2018-May-16 04:00S 27°11' E 153°06'0 0.8
2018-May-16 03:30S 27°11' E 153°06'1 1.0
2018-May-16 03:00S 27°12' E 153°07'0 0.0
2018-May-16 02:30S 27°12' E 153°07'0 0.0
2018-May-16 02:00S 27°12' E 153°07'0 0.0
2018-May-16 01:30S 27°12' E 153°07'  

Dump ship's entire track history